createdAt,value
2023-04-21T00:01:31.997Z,13.30
2023-04-21T00:04:20.105Z,12.50
2023-04-21T00:07:08.412Z,11.85
2023-04-21T00:09:55.709Z,11.60
2023-04-21T00:12:42.862Z,12.25
2023-04-21T00:15:30.071Z,11.80
2023-04-21T00:18:18.091Z,12.93
2023-04-21T00:21:05.590Z,12.00
2023-04-21T00:23:52.799Z,11.73
2023-04-21T00:26:40.312Z,12.52
2023-04-21T00:29:27.519Z,12.57
2023-04-21T00:32:14.826Z,13.05
2023-04-21T00:35:02.023Z,12.02
2023-04-21T00:37:50.267Z,12.63
2023-04-21T00:40:37.638Z,12.30
2023-04-21T00:43:25.863Z,12.98
2023-04-21T00:46:13.250Z,11.93
2023-04-21T00:49:01.962Z,12.77
2023-04-21T00:51:49.352Z,13.15
2023-04-21T00:54:37.055Z,13.90
2023-04-21T00:57:24.832Z,14.63
2023-04-21T01:00:12.670Z,13.73
2023-04-21T01:03:01.846Z,14.88
2023-04-21T01:05:49.461Z,15.70
2023-04-21T01:08:36.866Z,15.82
2023-04-21T01:11:24.219Z,16.42
2023-04-21T01:14:11.381Z,16.48
2023-04-21T01:16:59.261Z,17.10
2023-04-21T01:19:46.948Z,18.60
2023-04-21T01:22:34.811Z,19.40
2023-04-21T01:25:25.897Z,18.75
2023-04-21T01:28:13.525Z,18.83
2023-04-21T01:31:00.954Z,20.88
2023-04-21T01:33:48.175Z,19.90
2023-04-21T01:36:37.034Z,19.17
2023-04-21T01:39:24.500Z,20.35
2023-04-21T01:42:12.377Z,20.60
2023-04-21T01:45:00.086Z,20.30
2023-04-21T01:47:47.316Z,21.63
2023-04-21T01:50:34.514Z,21.38
2023-04-21T01:53:21.682Z,20.77
2023-04-21T01:56:08.914Z,22.27
2023-04-21T01:58:56.040Z,21.30
2023-04-21T02:01:43.276Z,22.35
2023-04-21T02:04:30.708Z,22.17
2023-04-21T02:07:17.992Z,21.90
2023-04-21T02:10:05.529Z,23.48
2023-04-21T02:12:52.719Z,23.63
2023-04-21T02:15:39.932Z,24.33
2023-04-21T02:18:29.672Z,23.05
2023-04-21T02:21:16.792Z,22.73
2023-04-21T02:24:04.360Z,22.90
2023-04-21T02:26:51.565Z,25.40
2023-04-21T02:29:38.725Z,22.52
2023-04-21T02:32:26.429Z,23.52
2023-04-21T02:35:13.828Z,24.05
2023-04-21T02:38:06.407Z,24.27
2023-04-21T02:40:53.587Z,23.02
2023-04-21T02:43:40.881Z,25.60
2023-04-21T02:46:28.045Z,28.38
2023-04-21T02:49:15.303Z,26.65
2023-04-21T02:52:02.569Z,26.00
2023-04-21T02:54:49.700Z,24.00
2023-04-21T02:57:36.889Z,26.55
2023-04-21T03:00:24.178Z,26.00
2023-04-21T03:03:11.470Z,25.13
2023-04-21T03:06:03.717Z,25.17
2023-04-21T03:08:50.925Z,24.50
2023-04-21T03:11:38.058Z,27.08
2023-04-21T03:14:25.205Z,25.10
2023-04-21T03:17:12.348Z,27.25
2023-04-21T03:19:59.572Z,26.05
2023-04-21T03:22:46.813Z,27.50
2023-04-21T03:25:34.039Z,26.25
2023-04-21T03:28:21.247Z,27.92
2023-04-21T03:31:08.695Z,26.80
2023-04-21T03:33:55.963Z,25.63
2023-04-21T03:36:43.187Z,27.77
2023-04-21T03:39:30.782Z,26.67
2023-04-21T03:42:18.028Z,29.00
2023-04-21T03:45:07.418Z,25.23
2023-04-21T03:47:55.934Z,25.55
2023-04-21T03:50:43.274Z,24.92
2023-04-21T03:53:30.553Z,25.40
2023-04-21T03:56:17.715Z,25.80
2023-04-21T03:59:05.827Z,25.67
2023-04-21T04:01:52.989Z,28.77
2023-04-21T04:04:40.481Z,27.25
2023-04-21T04:07:27.778Z,28.30
2023-04-21T04:10:15.003Z,29.10
2023-04-21T04:13:02.223Z,26.33
2023-04-21T04:15:49.442Z,25.98
2023-04-21T04:18:36.665Z,25.35
2023-04-21T04:21:23.852Z,26.85
2023-04-21T04:24:11.673Z,28.35
2023-04-21T04:26:59.815Z,26.58
2023-04-21T04:29:49.346Z,27.00
2023-04-21T04:32:39.613Z,26.30
2023-04-21T04:35:26.800Z,26.58
2023-04-21T04:38:17.163Z,26.73
2023-04-21T04:41:05.136Z,26.73
2023-04-21T04:43:53.594Z,25.75
2023-04-21T04:46:40.819Z,25.50
2023-04-21T04:49:28.138Z,24.67
2023-04-21T04:52:15.584Z,25.95
2023-04-21T04:55:02.833Z,25.40
2023-04-21T04:57:50.050Z,26.88
2023-04-21T05:00:37.710Z,23.38
2023-04-21T05:03:25.117Z,22.95
2023-04-21T05:06:14.365Z,24.15
2023-04-21T05:09:01.644Z,26.25
2023-04-21T05:11:48.845Z,23.27
2023-04-21T05:14:36.193Z,24.25
2023-04-21T05:17:23.412Z,24.15
2023-04-21T05:20:10.897Z,22.98
2023-04-21T05:22:58.165Z,25.35
2023-04-21T05:25:45.350Z,23.83
2023-04-21T05:28:32.647Z,22.17
2023-04-21T05:31:19.928Z,24.17
2023-04-21T05:34:07.477Z,24.98
2023-04-21T05:36:54.710Z,24.13
2023-04-21T05:39:42.021Z,24.58
2023-04-21T05:42:29.286Z,24.27
2023-04-21T05:45:16.615Z,26.20
2023-04-21T05:48:04.100Z,23.95
2023-04-21T05:50:51.526Z,23.15
2023-04-21T05:53:39.717Z,24.48
2023-04-21T05:56:27.123Z,26.63
2023-04-21T05:59:14.665Z,25.17
2023-04-21T06:02:03.971Z,25.02
2023-04-21T06:04:51.451Z,26.58
2023-04-21T06:07:38.927Z,22.73
2023-04-21T06:10:26.317Z,25.17
2023-04-21T06:13:13.726Z,22.80
2023-04-21T06:16:00.917Z,23.75
2023-04-21T06:18:48.129Z,22.98
2023-04-21T06:21:35.391Z,24.75
2023-04-21T06:24:25.574Z,23.75
2023-04-21T06:27:13.543Z,22.35
2023-04-21T06:30:00.810Z,23.48
2023-04-21T06:32:48.803Z,22.52
2023-04-21T06:35:36.148Z,21.88
2023-04-21T06:38:23.594Z,22.88
2023-04-21T06:41:10.900Z,23.67
2023-04-21T06:43:58.079Z,23.48
2023-04-21T06:46:45.386Z,24.27
2023-04-21T06:49:34.331Z,21.98
2023-04-21T06:52:21.527Z,22.17
2023-04-21T06:55:09.010Z,21.80
2023-04-21T06:57:56.328Z,23.98
2023-04-21T07:00:43.622Z,21.48
2023-04-21T07:03:31.000Z,21.65
2023-04-21T07:06:18.407Z,22.63
2023-04-21T07:09:05.947Z,21.40
2023-04-21T07:11:53.087Z,19.83
2023-04-21T07:14:40.428Z,20.63
2023-04-21T07:17:27.658Z,22.45
2023-04-21T07:20:14.967Z,19.13
2023-04-21T07:23:02.236Z,19.45
2023-04-21T07:25:49.616Z,17.17
2023-04-21T07:28:38.368Z,17.52
2023-04-21T07:31:25.881Z,18.65
2023-04-21T07:34:13.035Z,17.83
2023-04-21T07:37:00.391Z,16.83
2023-04-21T07:39:47.706Z,16.27
2023-04-21T07:42:34.974Z,16.50
2023-04-21T07:45:22.141Z,18.08
2023-04-21T07:48:09.528Z,17.52
2023-04-21T07:50:58.583Z,15.93
2023-04-21T07:53:46.226Z,16.27
2023-04-21T07:56:33.549Z,16.05
2023-04-21T07:59:21.135Z,16.02
2023-04-21T08:02:09.537Z,15.13
2023-04-21T08:04:56.875Z,14.68
2023-04-21T08:07:44.257Z,14.38
2023-04-21T08:10:31.520Z,14.00
2023-04-21T08:13:18.855Z,14.23
2023-04-21T08:16:06.365Z,14.55
2023-04-21T08:18:53.696Z,14.75
2023-04-21T08:21:40.885Z,13.32
2023-04-21T08:24:28.193Z,14.50
2023-04-21T08:27:15.414Z,14.60
2023-04-21T08:30:02.668Z,14.07
2023-04-21T08:32:50.034Z,14.38
2023-04-21T08:35:38.420Z,13.93
2023-04-21T08:38:26.865Z,13.73
2023-04-21T08:41:14.440Z,14.75
2023-04-21T08:44:01.840Z,14.25
2023-04-21T08:46:52.299Z,15.25
2023-04-21T08:49:41.152Z,14.18
2023-04-21T08:52:28.386Z,14.07
2023-04-21T08:55:16.427Z,13.60
2023-04-21T08:58:07.071Z,14.70
2023-04-21T09:00:54.407Z,13.85
2023-04-21T09:03:41.793Z,14.95
2023-04-21T09:06:43.574Z,13.65
2023-04-21T09:09:30.954Z,13.80
2023-04-21T09:12:18.747Z,13.00
2023-04-21T09:15:06.852Z,13.35
2023-04-21T09:17:57.290Z,14.98
2023-04-21T09:20:46.321Z,12.50
2023-04-21T09:23:47.130Z,13.13
2023-04-21T09:26:37.782Z,12.90
2023-04-21T09:29:26.006Z,14.10
2023-04-21T09:32:17.850Z,13.38
2023-04-21T09:35:12.867Z,12.20
2023-04-21T09:38:01.958Z,12.55
2023-04-21T09:40:59.171Z,12.02
2023-04-21T09:43:46.391Z,10.95
2023-04-21T09:46:36.228Z,10.68
2023-04-21T09:49:24.627Z,11.75
2023-04-21T09:52:19.043Z,11.60
2023-04-21T09:55:12.058Z,10.32
2023-04-21T09:58:01.492Z,11.65
2023-04-21T10:00:50.768Z,12.27
2023-04-21T10:03:40.259Z,12.95
2023-04-21T10:06:27.811Z,11.63
2023-04-21T10:09:18.394Z,11.60
2023-04-21T10:12:09.012Z,10.77
2023-04-21T10:14:57.152Z,10.45
2023-04-21T10:17:44.550Z,12.82
2023-04-21T10:20:33.314Z,10.20
2023-04-21T10:23:47.734Z,10.82
2023-04-21T10:26:36.358Z,12.32
2023-04-21T10:29:40.246Z,9.02
2023-04-21T10:32:43.003Z,9.38
2023-04-21T10:36:01.032Z,11.63
2023-04-21T10:38:57.378Z,11.32
2023-04-21T10:41:46.548Z,11.95
2023-04-21T10:44:33.812Z,11.35
2023-04-21T10:47:27.938Z,10.77
2023-04-21T10:50:29.645Z,10.15
2023-04-21T10:53:17.108Z,9.90
2023-04-21T10:56:05.320Z,10.23
2023-04-21T10:58:53.497Z,9.27
2023-04-21T11:01:41.471Z,9.77
2023-04-21T11:04:29.239Z,11.38
2023-04-21T11:07:18.384Z,8.23
2023-04-21T11:10:08.386Z,8.85
2023-04-21T11:12:58.051Z,11.35
2023-04-21T11:16:08.585Z,11.02
2023-04-21T11:18:57.061Z,10.27
2023-04-21T11:21:48.503Z,11.18
2023-04-21T11:24:36.533Z,10.93
2023-04-21T11:27:26.450Z,11.20
2023-04-21T11:30:14.429Z,10.88
2023-04-21T11:33:02.054Z,10.65
2023-04-21T11:35:51.654Z,11.43
2023-04-21T11:38:42.552Z,9.75
2023-04-21T11:41:29.730Z,9.90
2023-04-21T11:44:33.477Z,9.23
2023-04-21T11:47:26.091Z,9.43
2023-04-21T11:50:31.698Z,8.75
2023-04-21T11:53:19.765Z,7.95
2023-04-21T11:56:07.145Z,10.60
2023-04-21T11:58:54.483Z,11.25
2023-04-21T12:01:45.883Z,10.02
2023-04-21T12:04:34.571Z,10.85
2023-04-21T12:07:23.265Z,10.32
2023-04-21T12:10:12.437Z,10.60
2023-04-21T12:12:59.664Z,10.60
2023-04-21T12:15:46.899Z,10.93
2023-04-21T12:18:36.775Z,9.50
2023-04-21T12:21:31.020Z,9.95
2023-04-21T12:24:18.175Z,9.10
2023-04-21T12:27:06.454Z,9.68
2023-04-21T12:29:53.680Z,8.70
2023-04-21T12:32:40.871Z,9.02
2023-04-21T12:35:28.192Z,10.75
2023-04-21T12:38:15.635Z,9.48
2023-04-21T12:41:02.854Z,8.82
2023-04-21T12:44:27.615Z,11.88
2023-04-21T12:47:14.806Z,11.15
2023-04-21T12:50:02.027Z,10.57
2023-04-21T12:52:51.559Z,9.45
2023-04-21T12:55:39.139Z,8.80
2023-04-21T12:58:26.323Z,8.60
2023-04-21T13:01:15.431Z,8.32
2023-04-21T13:04:03.608Z,7.50
2023-04-21T13:06:51.180Z,6.57
2023-04-21T13:09:38.754Z,7.55
2023-04-21T13:12:27.815Z,7.47
2023-04-21T13:15:14.996Z,10.00
2023-04-21T13:18:02.268Z,6.82
2023-04-21T13:20:49.470Z,7.53
2023-04-21T13:23:36.836Z,7.65
2023-04-21T13:26:24.443Z,6.80
2023-04-21T13:29:11.704Z,7.30
2023-04-21T13:31:58.860Z,6.72
2023-04-21T13:34:45.993Z,5.95
2023-04-21T13:37:33.127Z,6.13
2023-04-21T13:40:20.577Z,5.75
2023-04-21T13:43:07.742Z,5.45
2023-04-21T13:45:55.377Z,5.90
2023-04-21T13:48:43.119Z,6.95
2023-04-21T13:51:30.571Z,7.45
2023-04-21T13:54:17.770Z,6.45
2023-04-21T13:57:05.488Z,6.40
2023-04-21T13:59:54.249Z,6.15
2023-04-21T14:02:42.267Z,6.65
2023-04-21T14:05:30.769Z,6.68
2023-04-21T14:08:18.340Z,5.78
2023-04-21T14:11:06.531Z,6.32
2023-04-21T14:14:08.160Z,5.57
2023-04-21T14:16:57.092Z,5.85
2023-04-21T14:19:44.519Z,5.20
2023-04-21T14:22:31.722Z,5.38
2023-04-21T14:25:19.067Z,6.82
2023-04-21T14:28:09.084Z,5.78
2023-04-21T14:30:56.825Z,5.72
2023-04-21T14:33:43.912Z,5.95
2023-04-21T14:36:31.559Z,9.32
2023-04-21T14:39:18.849Z,5.57
2023-04-21T14:42:06.277Z,5.47
2023-04-21T14:44:53.765Z,4.75
2023-04-21T14:47:41.302Z,5.57
2023-04-21T14:50:28.593Z,5.57
2023-04-21T14:53:15.924Z,5.45
2023-04-21T14:56:03.270Z,5.45
2023-04-21T14:58:50.543Z,5.78
2023-04-21T15:01:38.049Z,6.15
2023-04-21T15:04:27.929Z,5.68
2023-04-21T15:07:17.840Z,6.32
2023-04-21T15:10:09.599Z,5.90
2023-04-21T15:12:57.387Z,6.28
2023-04-21T15:15:44.695Z,6.18
2023-04-21T15:18:31.879Z,5.47
2023-04-21T15:21:20.091Z,11.38
2023-04-21T15:24:07.432Z,5.72
2023-04-21T15:26:54.627Z,5.15
2023-04-21T15:29:41.904Z,6.15
2023-04-21T15:32:29.906Z,5.43
2023-04-21T15:35:17.101Z,5.82
2023-04-21T15:38:06.066Z,5.78
2023-04-21T15:41:00.860Z,6.32
2023-04-21T15:43:48.608Z,5.53
2023-04-21T15:46:35.900Z,5.68
2023-04-21T15:49:33.039Z,5.05
2023-04-21T15:52:20.499Z,6.15
2023-04-21T15:55:08.303Z,5.57
2023-04-21T15:57:55.576Z,6.00
2023-04-21T16:00:42.927Z,5.22
2023-04-21T16:03:30.359Z,5.65
2023-04-21T16:06:17.795Z,5.63
2023-04-21T16:09:05.048Z,4.47
2023-04-21T16:11:52.460Z,3.85
2023-04-21T16:14:54.389Z,3.20
2023-04-21T16:17:42.858Z,2.38
2023-04-21T16:20:31.163Z,2.00
2023-04-21T16:23:18.808Z,3.28
2023-04-21T16:26:06.422Z,2.00
2023-04-21T16:28:55.567Z,3.03
2023-04-21T16:31:42.793Z,3.28
2023-04-21T16:34:30.231Z,2.20
2023-04-21T16:37:17.684Z,2.42
2023-04-21T16:40:08.993Z,2.25
2023-04-21T16:42:56.102Z,2.67
2023-04-21T16:45:43.683Z,2.10
2023-04-21T16:48:30.942Z,1.98
2023-04-21T16:51:18.323Z,3.15
2023-04-21T16:54:05.685Z,2.00
2023-04-21T16:56:53.017Z,2.30
2023-04-21T16:59:40.844Z,2.33
2023-04-21T17:02:28.079Z,1.80
2023-04-21T17:05:16.486Z,3.25
2023-04-21T17:08:05.417Z,1.70
2023-04-21T17:10:52.699Z,1.80
2023-04-21T17:13:39.906Z,1.85
2023-04-21T17:16:27.121Z,3.17
2023-04-21T17:19:14.367Z,1.70
2023-04-21T17:22:01.671Z,1.77
2023-04-21T17:24:53.839Z,1.60
2023-04-21T17:27:41.855Z,2.97
2023-04-21T17:30:29.078Z,1.50
2023-04-21T17:33:17.681Z,1.65
2023-04-21T17:36:05.872Z,1.73
2023-04-21T17:38:53.113Z,1.50
2023-04-21T17:41:41.956Z,1.70
2023-04-21T17:44:29.178Z,1.70
2023-04-21T17:47:16.813Z,1.83
2023-04-21T17:50:04.273Z,1.90
2023-04-21T17:52:51.578Z,1.50
2023-04-21T17:55:39.882Z,1.65
2023-04-21T17:58:27.816Z,1.60
2023-04-21T18:01:15.100Z,1.88
2023-04-21T18:04:02.582Z,1.80
2023-04-21T18:06:51.268Z,1.77
2023-04-21T18:09:38.555Z,1.98
2023-04-21T18:12:25.948Z,2.65
2023-04-21T18:15:13.210Z,3.20
2023-04-21T18:18:00.584Z,3.30
2023-04-21T18:20:48.348Z,4.50
2023-04-21T18:23:35.472Z,3.95
2023-04-21T18:26:22.906Z,5.30
2023-04-21T18:29:10.252Z,5.18
2023-04-21T18:31:57.732Z,5.75
2023-04-21T18:34:45.006Z,5.97
2023-04-21T18:37:32.859Z,8.38
2023-04-21T18:40:20.333Z,7.15
2023-04-21T18:43:07.797Z,7.65
2023-04-21T18:45:55.077Z,8.00
2023-04-21T18:48:42.318Z,8.20
2023-04-21T18:51:31.414Z,7.20
2023-04-21T18:54:18.541Z,7.95
2023-04-21T18:57:06.332Z,8.40
2023-04-21T18:59:53.642Z,8.93
2023-04-21T19:02:41.581Z,10.35
2023-04-21T19:05:31.044Z,8.93
2023-04-21T19:08:30.077Z,9.48
2023-04-21T19:11:25.871Z,8.35
2023-04-21T19:14:13.023Z,8.93
2023-04-21T19:17:00.284Z,8.52
2023-04-21T19:19:47.788Z,8.98
2023-04-21T19:22:36.242Z,8.45
2023-04-21T19:25:23.381Z,10.00
2023-04-21T19:28:10.618Z,9.40
2023-04-21T19:30:58.153Z,9.73
2023-04-21T19:33:45.464Z,11.70
2023-04-21T19:36:32.998Z,8.88
2023-04-21T19:39:20.174Z,10.05
2023-04-21T19:42:08.052Z,10.52
2023-04-21T19:44:55.266Z,8.27
2023-04-21T19:47:42.538Z,11.70
2023-04-21T19:50:29.914Z,9.20
2023-04-21T19:53:17.336Z,11.40
2023-04-21T19:56:04.978Z,8.65
2023-04-21T19:58:52.342Z,10.25
2023-04-21T20:01:39.793Z,9.68
2023-04-21T20:04:27.235Z,9.90
2023-04-21T20:07:14.535Z,9.82
2023-04-21T20:10:01.820Z,10.88
2023-04-21T20:12:48.946Z,9.32
2023-04-21T20:15:36.290Z,10.02
2023-04-21T20:18:23.515Z,11.43
2023-04-21T20:21:11.033Z,10.82
2023-04-21T20:23:58.324Z,9.02
2023-04-21T20:26:45.960Z,10.35
2023-04-21T20:29:33.208Z,8.93
2023-04-21T20:32:20.476Z,8.93
2023-04-21T20:35:08.214Z,8.52
2023-04-21T20:37:55.455Z,8.60
2023-04-21T20:40:43.215Z,9.35
2023-04-21T20:43:33.222Z,9.27
2023-04-21T20:46:20.639Z,9.05
2023-04-21T20:49:07.961Z,9.05
2023-04-21T20:51:59.664Z,8.63
2023-04-21T20:54:46.868Z,9.48
2023-04-21T20:57:34.430Z,11.48
2023-04-21T21:00:21.720Z,10.48
2023-04-21T21:03:10.057Z,9.38
2023-04-21T21:05:57.412Z,9.23
2023-04-21T21:08:44.720Z,10.10
2023-04-21T21:11:32.069Z,9.57
2023-04-21T21:14:19.264Z,10.13
2023-04-21T21:17:06.668Z,10.52
2023-04-21T21:19:53.938Z,9.50
2023-04-21T21:22:43.152Z,9.38
2023-04-21T21:25:30.461Z,9.32
2023-04-21T21:28:19.040Z,9.48
2023-04-21T21:31:06.335Z,9.38
2023-04-21T21:33:53.604Z,9.85
2023-04-21T21:36:41.561Z,9.68
2023-04-21T21:39:28.778Z,10.88
2023-04-21T21:42:16.044Z,9.23
2023-04-21T21:45:03.535Z,10.93
2023-04-21T21:47:50.907Z,9.50
2023-04-21T21:50:38.170Z,10.18
2023-04-21T21:53:25.393Z,10.40
2023-04-21T21:56:12.741Z,10.57
2023-04-21T21:58:59.922Z,9.75
2023-04-21T22:01:47.218Z,9.57
2023-04-21T22:04:34.544Z,9.02
2023-04-21T22:07:21.940Z,9.63
2023-04-21T22:10:10.474Z,8.35
2023-04-21T22:12:57.663Z,9.38
2023-04-21T22:15:44.941Z,9.07
2023-04-21T22:18:32.218Z,9.23
2023-04-21T22:21:20.631Z,9.40
2023-04-21T22:24:09.919Z,10.25
2023-04-21T22:26:57.256Z,11.05
2023-04-21T22:29:44.584Z,10.63
2023-04-21T22:32:32.464Z,9.65
2023-04-21T22:35:19.992Z,11.50
2023-04-21T22:38:07.201Z,11.18
2023-04-21T22:40:54.434Z,11.50
2023-04-21T22:43:41.698Z,10.50
2023-04-21T22:46:32.183Z,10.52
2023-04-21T22:49:19.636Z,10.05
2023-04-21T22:52:07.176Z,11.63
2023-04-21T22:54:54.693Z,11.00
2023-04-21T22:57:42.704Z,11.93
2023-04-21T23:00:29.950Z,8.60
2023-04-21T23:03:17.638Z,9.27
2023-04-21T23:06:05.987Z,9.35
2023-04-21T23:08:53.182Z,10.13
2023-04-21T23:11:40.591Z,9.90
2023-04-21T23:14:27.828Z,9.43
2023-04-21T23:21:26.409Z,9.82
2023-04-21T23:24:13.967Z,10.40
2023-04-21T23:27:01.232Z,9.30
2023-04-21T23:29:48.523Z,11.45
2023-04-21T23:32:36.613Z,11.82
2023-04-21T23:35:23.821Z,12.07
2023-04-21T23:38:11.068Z,11.73
2023-04-21T23:40:58.313Z,13.27
2023-04-21T23:43:45.480Z,13.27
2023-04-21T23:46:32.861Z,11.65
2023-04-21T23:49:20.153Z,11.70
2023-04-21T23:52:08.182Z,11.95
2023-04-21T23:54:55.563Z,11.80
2023-04-21T23:57:44.696Z,11.15
